Time;durP1;ratioP1;P1;durP2;ratioP2;P2;SDS_P1;SDS_P2;PMS_P1;PMS_P2;Temp;Humidity;BMP_temperature;BMP_pressure;BME280_temperature;BME280_humidity;BME280_pressure;Samples;Min_cycle;Max_cycle;Signal;HPM_P1;HPM_P2
2020/12/26 00:00:03;;;;;;;3.83;2.97;;;;;;;4.99;54.54;98559.44;8251664;28;20237;-80
2020/12/26 00:04:05;;;;;;;7.00;3.73;;;;;;;4.99;54.73;98559.44;8251124;28;20206;-80
2020/12/26 00:08:07;;;;;;;8.63;4.40;;;;;;;8.00;89.65;98559.97;8249906;28;20213;-79
2020/12/26 00:12:10;;;;;;;4.37;3.37;;;;;;;6.75;53.72;98557.53;8251475;28;20270;-80
2020/12/26 00:16:13;;;;;;;5.57;2.80;;;;;;;5.97;53.14;98553.78;8251375;28;20206;-79
2020/12/26 00:20:18;;;;;;;6.60;3.90;;;;;;;5.77;53.93;98556.63;8254227;28;20253;-80
2020/12/26 00:24:19;;;;;;;5.37;3.10;;;;;;;5.31;54.25;98553.00;8258620;28;20199;-79
2020/12/26 00:28:22;;;;;;;4.10;3.20;;;;;;;5.47;54.16;98549.38;8257482;28;20415;-79
2020/12/26 00:32:24;;;;;;;4.70;3.03;;;;;;;5.39;53.34;98546.06;8258220;28;20530;-80
2020/12/26 00:36:26;;;;;;;4.67;3.47;;;;;;;5.37;53.59;98539.25;8257650;28;20202;-80
2020/12/26 00:40:27;;;;;;;3.50;2.83;;;;;;;5.35;53.85;98546.13;8258456;28;20238;-81
2020/12/26 00:44:30;;;;;;;8.03;2.97;;;;;;;5.31;54.22;98541.91;8294281;28;20581;-79
2020/12/26 00:48:32;;;;;;;5.27;3.23;;;;;;;5.19;53.91;98533.50;8293745;28;20210;-79
2020/12/26 00:52:34;;;;;;;4.60;2.80;;;;;;;5.19;54.11;98536.06;8285910;28;20263;-80
2020/12/26 00:56:36;;;;;;;4.13;2.70;;;;;;;5.14;53.00;98537.88;8288213;28;20205;-80
2020/12/26 01:00:39;;;;;;;2.90;2.60;;;;;;;5.08;52.76;98553.31;8288241;28;20230;-80
2020/12/26 01:04:41;;;;;;;3.90;2.70;;;;;;;5.08;52.49;98555.91;8284325;28;20198;-79
2020/12/26 01:08:43;;;;;;;3.20;2.90;;;;;;;4.86;53.04;98558.72;8284107;28;20206;-79
2020/12/26 01:12:45;;;;;;;4.20;2.67;;;;;;;5.00;53.05;98552.59;8283430;28;20583;-79
2020/12/26 01:16:50;;;;;;;4.00;2.70;;;;;;;5.04;52.82;98552.50;8281486;28;20265;-79
2020/12/26 01:20:52;;;;;;;5.37;2.60;;;;;;;4.97;53.78;98552.59;8280972;28;20244;-79
2020/12/26 01:24:54;;;;;;;2.80;2.53;;;;;;;4.98;53.65;98564.59;8281629;28;20209;-79
2020/12/26 01:28:56;;;;;;;3.43;2.40;;;;;;;5.01;54.09;98562.84;8255399;28;20202;-79
2020/12/26 01:32:58;;;;;;;3.20;2.53;;;;;;;4.96;53.08;98554.34;8250366;28;20202;-79
2020/12/26 01:37:01;;;;;;;4.47;3.10;;;;;;;4.80;53.39;98561.38;8250806;28;20199;-79
2020/12/26 01:41:03;;;;;;;3.10;2.67;;;;;;;4.77;54.04;98561.41;8250681;28;20239;-79
2020/12/26 01:45:05;;;;;;;3.37;2.50;;;;;;;4.80;53.20;98566.50;8253121;28;20289;-79
2020/12/26 01:49:09;;;;;;;3.83;2.67;;;;;;;4.66;53.90;98576.06;8253170;28;20234;-79
2020/12/26 01:53:11;;;;;;;4.90;2.83;;;;;;;4.73;54.28;98574.28;8247901;28;20583;-79
2020/12/26 01:57:13;;;;;;;3.43;2.90;;;;;;;4.70;54.59;98578.59;8246855;28;20217;-80
2020/12/26 02:01:15;;;;;;;5.03;3.20;;;;;;;4.42;55.49;98585.72;8247259;28;20266;-79
2020/12/26 02:05:17;;;;;;;4.23;2.80;;;;;;;4.58;55.02;98594.09;8246910;28;20202;-79
2020/12/26 02:09:19;;;;;;;3.17;2.50;;;;;;;4.61;54.41;98595.81;8246988;28;20210;-79
2020/12/26 02:13:21;;;;;;;3.37;2.80;;;;;;;4.45;54.80;98593.38;8246008;28;20238;-79
2020/12/26 02:17:24;;;;;;;3.40;2.70;;;;;;;4.49;54.54;98609.59;8244639;28;20214;-79
2020/12/26 02:21:28;;;;;;;3.27;2.73;;;;;;;4.52;54.85;98611.28;8247777;28;20229;-79
2020/12/26 02:25:31;;;;;;;4.23;2.70;;;;;;;4.64;54.44;98616.28;8246621;28;20209;-80
2020/12/26 02:29:33;;;;;;;3.33;3.00;;;;;;;4.61;54.17;98629.16;8247447;28;20237;-79
2020/12/26 02:33:35;;;;;;;3.63;2.97;;;;;;;4.50;53.60;98627.53;8248196;28;20650;-79
2020/12/26 02:37:36;;;;;;;4.33;3.30;;;;;;;4.55;53.40;98632.63;8247875;28;20249;-79
2020/12/26 02:41:39;;;;;;;4.10;3.60;;;;;;;4.35;53.83;98629.41;8245814;28;20444;-79
2020/12/26 02:45:41;;;;;;;5.67;3.87;;;;;;;4.49;53.71;98628.41;8246358;28;20198;-79
2020/12/26 02:49:42;;;;;;;4.23;3.77;;;;;;;4.57;53.89;98622.34;8246646;28;20217;-79
2020/12/26 02:53:44;;;;;;;4.20;3.60;;;;;;;4.42;53.78;98628.47;8249655;28;20209;-78
2020/12/26 02:57:47;;;;;;;5.73;4.00;;;;;;;4.49;53.64;98630.97;8248620;28;20615;-79
2020/12/26 03:01:48;;;;;;;6.37;3.73;;;;;;;4.44;54.36;98621.63;8249924;28;20277;-79
2020/12/26 03:05:50;;;;;;;5.53;3.93;;;;;;;4.42;54.93;98615.66;8270612;28;20208;-79
2020/12/26 03:09:52;;;;;;;5.20;4.23;;;;;;;4.27;54.71;98616.63;8278684;28;20205;-79
2020/12/26 03:13:54;;;;;;;4.83;4.23;;;;;;;4.21;54.47;98620.09;8262102;28;20581;-79
2020/12/26 03:17:56;;;;;;;5.67;4.07;;;;;;;4.18;54.55;98609.03;8275174;28;20203;-79
2020/12/26 03:21:58;;;;;;;4.67;3.87;;;;;;;4.03;54.63;98598.00;8276112;28;20226;-79
2020/12/26 03:25:59;;;;;;;4.33;3.90;;;;;;;4.15;54.26;98612.47;8290862;28;20581;-78
2020/12/26 03:30:02;;;;;;;4.93;4.23;;;;;;;4.12;54.50;98615.03;8247465;28;20214;-78
2020/12/26 03:34:04;;;;;;;5.17;3.90;;;;;;;4.18;55.19;98621.84;8242987;28;20701;-79
2020/12/26 03:38:06;;;;;;;5.07;4.13;;;;;;;3.95;54.32;98633.13;8245811;28;20322;-79
2020/12/26 03:42:10;;;;;;;10.30;4.00;;;;;;;3.90;54.58;98629.72;8240014;28;20226;-78
2020/12/26 03:46:13;;;;;;;4.77;4.13;;;;;;;4.03;54.81;98615.13;8240832;28;20662;-78
2020/12/26 03:50:15;;;;;;;5.47;4.50;;;;;;;4.10;54.17;98625.31;8240352;28;20214;-79
2020/12/26 03:54:17;;;;;;;4.97;4.33;;;;;;;3.94;54.74;98639.13;8243412;28;20213;-79
2020/12/26 03:58:18;;;;;;;5.33;4.30;;;;;;;3.91;54.37;98644.25;8248448;28;20206;-78
2020/12/26 04:02:21;;;;;;;5.50;4.10;;;;;;;3.74;54.83;98646.06;8250755;28;20229;-80
2020/12/26 04:06:23;;;;;;;5.80;4.30;;;;;;;3.82;54.32;98652.84;8253197;28;20217;-79
2020/12/26 04:10:25;;;;;;;4.20;3.80;;;;;;;3.63;55.48;98654.66;8253137;28;20759;-79
2020/12/26 04:14:26;;;;;;;5.17;4.50;;;;;;;3.77;54.62;98661.41;8246611;28;20587;-79
2020/12/26 04:18:29;;;;;;;5.87;4.13;;;;;;;3.68;55.18;98664.88;8246541;28;20209;-79
2020/12/26 04:22:31;;;;;;;5.00;4.10;;;;;;;3.73;55.04;98663.13;8245787;28;20234;-79
2020/12/26 04:26:32;;;;;;;6.83;4.10;;;;;;;3.51;54.80;98676.06;8247889;28;20230;-79
2020/12/26 04:30:34;;;;;;;6.70;4.73;;;;;;;3.70;55.10;98679.38;8248096;28;20206;-79
2020/12/26 04:34:37;;;;;;;4.43;4.03;;;;;;;3.65;54.47;98690.50;8248011;28;20202;-79
2020/12/26 04:38:38;;;;;;;4.73;4.10;;;;;;;3.71;54.71;98688.78;8248955;28;20198;-79
2020/12/26 04:42:42;;;;;;;5.33;3.83;;;;;;;3.53;54.78;98678.63;8249337;28;20226;-79
2020/12/26 04:46:44;;;;;;;7.20;4.17;;;;;;;3.53;54.62;98681.19;8249971;28;20557;-79
2020/12/26 04:50:48;;;;;;;4.50;4.10;;;;;;;3.32;55.28;98671.88;8250432;28;20221;-79
2020/12/26 04:54:52;;;;;;;4.33;3.90;;;;;;;3.40;55.24;98670.13;8252147;28;20203;-79
2020/12/26 04:58:54;;;;;;;4.33;3.93;;;;;;;3.39;54.44;98677.81;8252838;28;20213;-79
2020/12/26 05:02:56;;;;;;;5.83;4.20;;;;;;;3.39;55.22;98678.69;8255094;28;20230;-79
2020/12/26 05:06:58;;;;;;;6.20;4.43;;;;;;;3.45;54.73;98673.53;8255790;28;20639;-79
2020/12/26 05:11:01;;;;;;;4.87;4.10;;;;;;;3.36;54.74;98672.72;8243699;28;20202;-79
2020/12/26 05:15:03;;;;;;;7.37;4.27;;;;;;;3.37;55.11;98674.41;8244223;28;20361;-79
2020/12/26 05:19:05;;;;;;;4.87;4.13;;;;;;;3.26;54.83;98664.25;8247163;28;20209;-79
2020/12/26 05:23:09;;;;;;;5.20;4.40;;;;;;;3.27;55.01;98679.56;8242972;28;20241;-79
2020/12/26 05:27:11;;;;;;;4.83;4.33;;;;;;;3.38;54.73;98671.84;8239058;28;20210;-78
2020/12/26 05:31:13;;;;;;;8.43;4.47;;;;;;;3.42;54.32;98663.28;8241014;28;20218;-79
2020/12/26 05:35:15;;;;;;;4.53;3.90;;;;;;;3.25;54.02;98663.38;8242839;28;20203;-79
2020/12/26 05:39:17;;;;;;;5.00;4.50;;;;;;;3.14;54.78;98647.19;8243360;28;20207;-79
2020/12/26 05:43:21;;;;;;;5.33;4.13;;;;;;;3.03;55.31;98656.63;8243730;28;20217;-79
2020/12/26 05:47:25;;;;;;;5.10;4.47;;;;;;;3.02;54.97;98658.31;8245620;28;20651;-79
2020/12/26 05:51:31;;;;;;;6.10;4.70;;;;;;;3.27;54.80;98673.59;8246322;28;20270;-79
2020/12/26 05:55:37;;;;;;;5.43;4.57;;;;;;;3.17;54.96;98672.78;8246343;28;20214;-79
2020/12/26 05:59:40;;;;;;;5.50;4.63;;;;;;;3.15;54.81;98663.41;8247962;28;20214;-79
2020/12/26 06:03:42;;;;;;;5.63;4.70;;;;;;;3.25;55.03;98668.47;8244351;28;20207;-79
2020/12/26 06:07:44;;;;;;;4.73;4.33;;;;;;;3.30;54.94;98663.38;8245331;28;20202;-79
2020/12/26 06:11:47;;;;;;;5.30;4.60;;;;;;;3.28;55.75;98653.13;8245163;28;20577;-79
2020/12/26 06:15:51;;;;;;;5.47;4.60;;;;;;;3.37;55.20;98662.50;8245828;28;20225;-79
2020/12/26 06:20:00;;;;;;;5.67;5.13;;;;;;;3.35;55.24;98665.88;8244857;28;20237;-79
2020/12/26 06:24:02;;;;;;;7.13;4.50;;;;;;;3.44;54.30;98658.19;8247381;28;20202;-79
2020/12/26 06:28:09;;;;;;;5.70;4.90;;;;;;;3.37;55.36;98659.94;8247079;28;20256;-79
2020/12/26 06:32:12;;;;;;;5.83;4.70;;;;;;;3.36;55.44;98665.03;8245290;28;20210;-79
2020/12/26 06:36:14;;;;;;;5.50;4.67;;;;;;;3.41;55.55;98676.09;8242294;28;20589;-79
2020/12/26 06:40:29;;;;;;;6.40;5.07;;;;;;;3.45;55.49;98676.09;8243557;28;20256;-79
2020/12/26 06:44:35;;;;;;;6.10;5.07;;;;;;;3.46;55.34;98682.06;8245404;28;20225;-80
2020/12/26 06:48:37;;;;;;;6.27;5.23;;;;;;;3.38;56.12;98687.22;8246637;28;20190;-79
2020/12/26 06:52:39;;;;;;;10.53;5.10;;;;;;;3.40;55.42;98671.84;8240908;28;20218;-79
2020/12/26 06:56:47;;;;;;;5.53;5.03;;;;;;;3.49;55.58;98682.06;8240002;28;20226;-79
2020/12/26 07:00:50;;;;;;;6.50;5.40;;;;;;;3.49;55.91;98685.47;8238816;28;20229;-78
2020/12/26 07:04:52;;;;;;;5.83;5.10;;;;;;;3.51;55.26;98677.78;8240305;28;20288;-78
2020/12/26 07:08:54;;;;;;;6.77;5.27;;;;;;;3.57;55.52;98685.44;8239179;28;20286;-78
2020/12/26 07:12:55;;;;;;;6.43;5.00;;;;;;;3.17;55.63;98677.91;8241475;28;20245;-78
2020/12/26 07:16:58;;;;;;;6.43;5.03;;;;;;;3.42;55.71;98683.78;8241768;28;20209;-79
2020/12/26 07:21:00;;;;;;;7.83;5.50;;;;;;;3.55;55.84;98694.00;8240846;28;20230;-79
2020/12/26 07:25:16;;;;;;;7.40;5.20;;;;;;;3.32;55.87;98688.09;8242015;28;20616;-80
2020/12/26 07:29:24;;;;;;;7.83;5.30;;;;;;;3.62;56.15;98691.38;8242437;28;20202;-80
2020/12/26 07:33:38;;;;;;;6.80;5.23;;;;;;;3.47;55.90;98689.75;8241988;28;20199;-80
2020/12/26 07:37:40;;;;;;;7.53;5.23;;;;;;;3.57;55.34;98690.56;8242615;28;20206;-80
2020/12/26 07:41:41;;;;;;;8.80;5.93;;;;;;;3.61;55.79;98691.38;8242561;28;20230;-80
2020/12/26 07:45:45;;;;;;;6.40;5.73;;;;;;;3.85;56.20;98685.31;8243949;28;20205;-80
2020/12/26 07:49:57;;;;;;;7.50;5.87;;;;;;;3.88;55.96;98675.88;8242534;28;20269;-80
2020/12/26 07:53:59;;;;;;;9.20;7.23;;;;;;;4.00;55.51;98677.50;8240592;28;20209;-80
2020/12/26 07:58:06;;;;;;;11.97;8.93;;;;;;;4.11;55.64;98678.28;8242241;28;20266;-80
2020/12/26 08:02:07;;;;;;;8.87;7.70;;;;;;;4.16;55.60;98674.84;8251008;28;20214;-79
2020/12/26 08:06:10;;;;;;;11.27;7.97;;;;;;;5.59;53.05;98674.25;8266574;28;20198;-80
2020/12/26 08:10:14;;;;;;;9.13;7.93;;;;;;;7.15;47.80;98684.69;8252575;28;20198;-80
2020/12/26 08:14:18;;;;;;;6.17;5.50;;;;;;;7.30;47.18;98678.38;8256403;28;20230;-81
2020/12/26 08:18:21;;;;;;;8.20;6.53;;;;;;;5.94;49.74;98683.22;8265721;28;20198;-80
2020/12/26 08:22:24;;;;;;;8.10;6.17;;;;;;;5.38;52.30;98687.38;8277506;28;20229;-80
2020/12/26 08:26:28;;;;;;;7.60;5.87;;;;;;;5.10;53.49;98690.22;8279528;28;20206;-80
2020/12/26 08:30:32;;;;;;;7.03;6.20;;;;;;;5.08;53.31;98690.28;8268630;28;20673;-80
2020/12/26 08:34:41;;;;;;;8.73;5.63;;;;;;;4.94;53.52;98693.84;8269520;28;20205;-81
2020/12/26 08:38:46;;;;;;;9.80;5.67;;;;;;;4.94;53.20;98694.69;8264972;28;20206;-79
2020/12/26 08:42:48;;;;;;;9.13;5.47;;;;;;;5.00;53.71;98694.63;8270399;28;20222;-79
2020/12/26 08:46:52;;;;;;;8.63;6.13;;;;;;;5.12;53.10;98685.94;8267739;28;20198;-79
2020/12/26 08:50:55;;;;;;;8.97;6.10;;;;;;;5.09;53.53;98694.53;8279314;28;20201;-80
2020/12/26 08:55:02;;;;;;;8.40;6.30;;;;;;;5.08;53.39;98708.25;8266515;28;20198;-80
2020/12/26 08:59:04;;;;;;;7.30;5.80;;;;;;;5.27;53.74;98697.75;8267047;28;20206;-80
2020/12/26 09:03:06;;;;;;;11.20;8.00;;;;;;;5.35;53.40;98703.66;8254248;28;20230;-80
2020/12/26 09:07:20;;;;;;;7.50;5.93;;;;;;;5.36;53.64;98707.09;8251986;28;20238;-80
2020/12/26 09:11:28;;;;;;;8.17;5.90;;;;;;;5.30;53.15;98715.72;8252348;28;20246;-80
2020/12/26 09:15:53;;;;;;;10.10;6.73;;;;;;;5.14;53.24;98714.16;8248538;28;20194;-79
2020/12/26 09:19:58;;;;;;;10.07;7.20;;;;;;;5.18;53.66;98719.25;8250735;28;20628;-79
2020/12/26 09:24:00;;;;;;;9.87;7.03;;;;;;;5.31;53.53;98721.69;8248280;28;20205;-79
2020/12/26 09:28:04;;;;;;;9.50;7.37;;;;;;;5.38;53.94;98729.31;8246398;28;20238;-79
2020/12/26 09:32:07;;;;;;;12.17;7.70;;;;;;;5.27;54.14;98729.44;8246795;28;20548;-79
2020/12/26 09:36:12;;;;;;;12.00;8.60;;;;;;;5.39;54.76;98727.59;8247430;28;20560;-79
2020/12/26 09:40:13;;;;;;;10.37;7.70;;;;;;;5.38;55.05;98728.47;8246956;28;20574;-79
2020/12/26 09:44:16;;;;;;;10.90;7.10;;;;;;;5.09;54.72;98737.31;8249402;28;20207;-79
2020/12/26 09:48:18;;;;;;;12.83;8.60;;;;;;;5.31;54.74;98740.50;8249434;28;20643;-79
2020/12/26 09:52:24;;;;;;;11.27;8.03;;;;;;;5.29;54.89;98737.09;8249203;28;20202;-79
2020/12/26 09:56:26;;;;;;;9.73;8.13;;;;;;;5.40;54.71;98737.00;8249969;28;20217;-79
2020/12/26 10:00:29;;;;;;;11.87;7.80;;;;;;;5.26;54.55;98725.16;8246819;28;20226;-80
2020/12/26 10:04:30;;;;;;;12.23;8.77;;;;;;;5.26;54.86;98724.31;8250576;28;20202;-79
2020/12/26 10:08:32;;;;;;;11.87;8.40;;;;;;;5.21;55.20;98728.66;8250508;28;20203;-79
2020/12/26 10:12:34;;;;;;;11.90;8.17;;;;;;;5.21;54.98;98733.78;8249510;28;20253;-79
2020/12/26 10:16:36;;;;;;;11.23;8.50;;;;;;;5.15;55.10;98728.72;8250612;28;20569;-80
2020/12/26 10:20:38;;;;;;;11.33;9.03;;;;;;;5.29;54.92;98737.09;8248218;28;20222;-80
2020/12/26 10:24:40;;;;;;;11.93;8.23;;;;;;;5.35;54.83;98734.50;8246206;28;20203;-79
2020/12/26 10:28:41;;;;;;;11.67;7.67;;;;;;;5.35;54.00;98725.91;8246816;28;20206;-79
2020/12/26 10:32:44;;;;;;;11.23;8.67;;;;;;;5.46;54.25;98739.50;8246294;28;20211;-80
2020/12/26 10:36:45;;;;;;;14.50;8.97;;;;;;;5.37;54.28;98734.44;8245054;28;20203;-80
2020/12/26 10:40:47;;;;;;;9.90;7.93;;;;;;;5.46;54.41;98724.94;8245770;28;20222;-79
2020/12/26 10:44:49;;;;;;;12.80;7.73;;;;;;;5.54;54.34;98735.13;8245198;28;20210;-80
2020/12/26 10:48:52;;;;;;;9.67;8.30;;;;;;;5.98;55.24;98740.63;8247105;28;20214;-79
2020/12/26 10:52:53;;;;;;;10.70;8.90;;;;;;;5.65;54.44;98727.28;8249513;28;20202;-80
2020/12/26 10:56:55;;;;;;;11.37;9.13;;;;;;;5.57;54.79;98722.22;8250129;28;20199;-81
2020/12/26 11:00:57;;;;;;;12.40;9.20;;;;;;;5.66;55.02;98723.84;8253170;28;20223;-82
2020/12/26 11:05:00;;;;;;;13.63;10.10;;;;;;;5.48;54.87;98723.22;8263161;28;20191;-80
2020/12/26 11:09:02;;;;;;;16.10;10.97;;;;;;;5.63;55.25;98716.16;8271529;28;20205;-81
2020/12/26 11:13:03;;;;;;;18.30;12.40;;;;;;;5.46;55.42;98711.22;8269076;28;20237;-80
2020/12/26 11:17:05;;;;;;;24.63;16.23;;;;;;;5.66;55.35;98696.44;8266255;28;20198;-80
2020/12/26 11:21:08;;;;;;;15.60;11.77;;;;;;;5.70;55.16;98694.66;8274319;28;20226;-80
2020/12/26 11:25:09;;;;;;;15.53;10.87;;;;;;;5.73;54.98;98696.34;8264822;28;20206;-79
2020/12/26 11:29:12;;;;;;;14.97;11.00;;;;;;;5.82;55.53;98683.38;8255898;28;20206;-79
2020/12/26 11:33:14;;;;;;;14.20;10.37;;;;;;;5.80;54.72;98682.53;8258822;28;20202;-80
2020/12/26 11:37:17;;;;;;;15.80;13.07;;;;;;;5.73;55.18;98676.66;8261814;28;20205;-79
2020/12/26 11:41:19;;;;;;;24.10;20.17;;;;;;;5.71;55.27;98682.66;8240315;28;20230;-79
2020/12/26 11:45:21;;;;;;;15.23;12.20;;;;;;;5.68;55.23;98668.97;8262908;28;20202;-79
2020/12/26 11:49:23;;;;;;;24.77;14.37;;;;;;;5.58;60.02;98669.13;8271953;28;20217;-79
2020/12/26 11:53:26;;;;;;;22.40;14.80;;;;;;;5.91;60.20;98664.41;8258994;28;20209;-79
2020/12/26 11:57:27;;;;;;;18.40;14.80;;;;;;;5.51;56.07;98658.09;8253054;28;20204;-80
2020/12/26 12:01:29;;;;;;;23.70;15.33;;;;;;;5.53;55.93;98658.06;8276403;28;20226;-80
2020/12/26 12:05:31;;;;;;;18.07;15.30;;;;;;;5.25;55.96;98659.28;8279477;28;20209;-79
2020/12/26 12:09:34;;;;;;;17.23;15.37;;;;;;;5.51;56.03;98658.09;8275087;28;20348;-79
2020/12/26 12:13:36;;;;;;;19.47;15.60;;;;;;;5.55;55.64;98651.19;8271827;28;20238;-79
2020/12/26 12:17:38;;;;;;;19.23;15.40;;;;;;;5.51;55.77;98660.66;8274956;28;20198;-78
2020/12/26 12:21:40;;;;;;;19.63;15.50;;;;;;;5.49;55.93;98654.69;8280974;28;20229;-79
2020/12/26 12:25:43;;;;;;;20.33;15.37;;;;;;;5.42;55.92;98663.34;8271722;28;20198;-79
2020/12/26 12:29:44;;;;;;;17.03;15.13;;;;;;;5.44;55.92;98657.28;8263267;28;20197;-79
2020/12/26 12:33:46;;;;;;;18.47;15.03;;;;;;;5.45;55.73;98658.16;8269072;28;20202;-79
2020/12/26 12:37:48;;;;;;;20.33;15.57;;;;;;;5.45;56.04;98653.88;8251399;28;20202;-80
2020/12/26 12:41:54;;;;;;;16.83;14.17;;;;;;;5.56;55.83;98647.72;8245997;28;20222;-79
2020/12/26 12:45:56;;;;;;;16.70;11.17;;;;;;;6.48;77.71;98654.13;8244222;28;20206;-78
2020/12/26 12:49:58;;;;;;;21.07;15.80;;;;;;;5.66;55.21;98641.63;8246305;28;20207;-79
2020/12/26 12:54:00;;;;;;;19.40;16.00;;;;;;;5.65;55.68;98642.47;8259034;28;20226;-81
2020/12/26 12:58:03;;;;;;;17.63;15.63;;;;;;;5.55;55.49;98639.19;8253263;28;20202;-79
2020/12/26 13:02:05;;;;;;;17.93;15.83;;;;;;;5.59;55.47;98647.69;8285591;28;20252;-80
2020/12/26 13:06:07;;;;;;;25.23;18.60;;;;;;;5.70;55.29;98637.28;8289875;28;20205;-81
2020/12/26 13:10:09;;;;;;;19.53;17.27;;;;;;;5.64;55.50;98635.66;8279992;28;20217;-81
2020/12/26 13:14:11;;;;;;;22.20;17.33;;;;;;;5.56;56.68;98629.75;8256779;28;20238;-81
2020/12/26 13:18:13;;;;;;;25.23;17.73;;;;;;;5.43;56.27;98606.81;8258003;28;20217;-81
2020/12/26 13:22:15;;;;;;;19.10;17.07;;;;;;;5.57;56.26;98626.31;8258677;28;20237;-80
2020/12/26 13:26:17;;;;;;;20.47;17.03;;;;;;;5.51;55.92;98603.28;8261976;28;20198;-82
2020/12/26 13:30:20;;;;;;;23.17;17.40;;;;;;;5.47;55.70;98608.47;8259837;28;20211;-81
2020/12/26 13:34:22;;;;;;;18.40;15.77;;;;;;;5.51;55.79;98601.56;8254673;28;20213;-81
2020/12/26 13:38:23;;;;;;;22.40;17.60;;;;;;;5.55;56.22;98605.78;8254488;28;20206;-80
2020/12/26 13:42:26;;;;;;;19.43;16.83;;;;;;;5.51;56.06;98600.72;8269120;28;20233;-80
2020/12/26 13:46:29;;;;;;;19.97;16.63;;;;;;;5.54;56.09;98604.09;8273509;28;20243;-80
2020/12/26 13:50:31;;;;;;;23.30;17.97;;;;;;;5.58;55.99;98597.16;8269990;28;20205;-80
2020/12/26 13:54:33;;;;;;;20.43;17.70;;;;;;;5.45;56.54;98594.78;8278542;28;20209;-79
2020/12/26 13:58:35;;;;;;;22.30;19.20;;;;;;;5.62;56.23;98591.16;8282996;28;20217;-79
2020/12/26 14:02:37;;;;;;;20.83;16.40;;;;;;;5.65;55.93;98579.09;8272185;28;20221;-78
2020/12/26 14:06:39;;;;;;;19.77;16.70;;;;;;;5.47;55.88;98575.06;8256776;28;20195;-79
2020/12/26 14:10:41;;;;;;;22.43;16.10;;;;;;;5.65;55.89;98560.25;8261754;28;20199;-79
2020/12/26 14:14:43;;;;;;;25.53;18.00;;;;;;;5.64;55.73;98572.25;8250603;28;20695;-79
2020/12/26 14:18:45;;;;;;;20.87;16.53;;;;;;;5.25;56.48;98566.81;8279885;28;20352;-81
2020/12/26 14:22:47;;;;;;;20.57;14.93;;;;;;;5.57;56.41;98560.34;8283028;28;20225;-79
2020/12/26 14:26:49;;;;;;;19.57;15.73;;;;;;;5.38;55.86;98544.38;8281492;28;20197;-79
2020/12/26 14:30:51;;;;;;;18.97;15.83;;;;;;;5.43;56.41;98540.00;8280973;28;20564;-79
2020/12/26 14:34:53;;;;;;;19.70;15.27;;;;;;;5.54;56.15;98533.84;8263451;28;20643;-80
2020/12/26 14:38:55;;;;;;;19.20;16.60;;;;;;;5.40;56.55;98532.34;8248199;28;20222;-79
2020/12/26 14:42:57;;;;;;;20.47;15.50;;;;;;;5.45;56.39;98530.56;8248916;28;20265;-78
2020/12/26 14:46:59;;;;;;;28.27;15.20;;;;;;;6.46;79.01;98542.66;8271454;28;20194;-79
2020/12/26 14:51:02;;;;;;;23.13;13.90;;;;;;;8.35;68.84;98537.59;8263714;28;20588;-79
2020/12/26 14:55:04;;;;;;;18.63;13.30;;;;;;;8.11;57.68;98539.06;8251060;28;20229;-79
2020/12/26 14:59:06;;;;;;;27.90;14.90;;;;;;;6.87;53.57;98535.84;8245078;28;20206;-78
2020/12/26 15:03:08;;;;;;;19.00;14.73;;;;;;;6.33;54.28;98543.75;8250278;28;20237;-78
2020/12/26 15:07:10;;;;;;;18.10;13.73;;;;;;;5.96;54.87;98532.38;8245851;28;20231;-79
2020/12/26 15:11:12;;;;;;;17.73;13.83;;;;;;;5.82;55.05;98534.28;8241818;28;20226;-79
2020/12/26 15:15:14;;;;;;;19.53;14.37;;;;;;;5.66;55.30;98528.56;8241198;28;20725;-78
2020/12/26 15:19:15;;;;;;;18.40;14.13;;;;;;;5.60;55.96;98520.94;8243366;28;20221;-80
2020/12/26 15:23:18;;;;;;;18.87;13.50;;;;;;;5.59;55.68;98527.78;8276005;28;20230;-80
2020/12/26 15:27:20;;;;;;;17.37;13.83;;;;;;;5.47;56.67;98527.97;8266430;28;20225;-77
2020/12/26 15:31:22;;;;;;;19.20;13.73;;;;;;;5.47;56.37;98525.41;8251014;28;20201;-79
2020/12/26 15:35:23;;;;;;;22.10;16.17;;;;;;;5.45;56.44;98514.31;8265166;28;20198;-79
2020/12/26 15:39:26;;;;;;;19.77;15.13;;;;;;;5.22;56.80;98522.34;8272773;28;20213;-79
2020/12/26 15:43:28;;;;;;;18.47;15.57;;;;;;;5.29;57.15;98524.81;8274683;28;20233;-79
2020/12/26 15:47:29;;;;;;;19.23;14.67;;;;;;;5.19;57.13;98519.81;8271835;28;20257;-80
2020/12/26 15:51:31;;;;;;;18.13;13.60;;;;;;;5.20;57.06;98511.25;8275809;28;20543;-78
2020/12/26 15:55:34;;;;;;;15.37;12.83;;;;;;;5.16;57.04;98518.16;8276657;28;20213;-78
2020/12/26 15:59:36;;;;;;;16.73;13.50;;;;;;;5.09;57.18;98501.13;8251398;28;20608;-78
2020/12/26 16:03:39;;;;;;;19.30;14.23;;;;;;;5.23;57.08;98514.59;8241750;28;20320;-78
2020/12/26 16:07:41;;;;;;;16.77;13.03;;;;;;;5.31;56.61;98511.91;8243394;28;20721;-79
2020/12/26 16:11:44;;;;;;;20.33;13.20;;;;;;;5.26;56.99;98506.88;8271593;28;20221;-78
2020/12/26 16:15:45;;;;;;;17.10;14.57;;;;;;;5.34;56.74;98504.19;8245956;28;20238;-79
2020/12/26 16:19:47;;;;;;;16.93;12.93;;;;;;;5.33;56.82;98505.06;8251617;28;20249;-79
2020/12/26 16:23:49;;;;;;;19.50;15.27;;;;;;;5.42;56.73;98507.47;8243499;28;20233;-78
2020/12/26 16:27:52;;;;;;;18.43;16.20;;;;;;;5.38;56.75;98503.25;8262947;28;20602;-79
2020/12/26 16:31:54;;;;;;;19.73;16.07;;;;;;;5.26;57.22;98496.59;8244874;28;20209;-78
2020/12/26 16:35:55;;;;;;;20.77;16.63;;;;;;;5.36;56.76;98504.16;8262599;28;20312;-79
2020/12/26 16:39:58;;;;;;;19.27;14.27;;;;;;;5.22;56.99;98509.50;8278902;28;20201;-78
2020/12/26 16:44:01;;;;;;;29.80;21.87;;;;;;;5.27;56.70;98513.72;8277343;28;20870;-80
2020/12/26 16:48:04;;;;;;;45.37;32.50;;;;;;;5.27;56.59;98507.72;8266470;28;20228;-79
2020/12/26 16:52:06;;;;;;;46.27;28.40;;;;;;;5.29;56.83;98505.97;8266885;28;20622;-79
2020/12/26 16:56:14;;;;;;;26.87;19.30;;;;;;;5.24;56.34;98502.63;8271021;28;20206;-79
2020/12/26 17:00:17;;;;;;;20.13;15.30;;;;;;;5.27;56.98;98500.00;8273788;28;20260;-79
2020/12/26 17:04:20;;;;;;;40.03;32.23;;;;;;;5.20;56.78;98498.41;8277037;28;20252;-78
2020/12/26 17:08:22;;;;;;;28.83;24.33;;;;;;;5.24;56.63;98493.19;8283671;28;20206;-79
2020/12/26 17:12:24;;;;;;;18.53;15.00;;;;;;;5.21;56.71;98488.09;8281605;28;20261;-79
2020/12/26 17:16:27;;;;;;;14.33;12.50;;;;;;;5.20;56.62;98480.44;8277028;28;20657;-77
2020/12/26 17:20:29;;;;;;;16.37;13.20;;;;;;;5.22;56.87;98484.69;8272714;28;20524;-78
2020/12/26 17:24:31;;;;;;;21.97;17.13;;;;;;;5.18;56.86;98480.47;8272893;28;20225;-78
2020/12/26 17:28:33;;;;;;;20.43;16.53;;;;;;;5.11;56.56;98478.84;8268004;28;20210;-79
2020/12/26 17:32:35;;;;;;;16.40;13.53;;;;;;;4.98;57.19;98479.88;8262324;28;20226;-78
2020/12/26 17:36:37;;;;;;;14.13;11.93;;;;;;;4.91;57.23;98471.41;8275570;28;20202;-79
2020/12/26 17:40:39;;;;;;;17.93;15.37;;;;;;;4.90;57.33;98478.25;8257528;28;20194;-79
2020/12/26 17:44:41;;;;;;;23.73;16.77;;;;;;;4.88;57.13;98467.16;8242831;28;20222;-79
2020/12/26 17:48:44;;;;;;;23.60;18.10;;;;;;;4.93;57.57;98450.84;8253613;28;20594;-79
2020/12/26 17:52:46;;;;;;;29.67;20.00;;;;;;;4.76;57.34;98436.56;8272180;28;20217;-79
2020/12/26 17:56:48;;;;;;;27.20;19.93;;;;;;;4.76;57.61;98441.69;8259743;28;20201;-79
2020/12/26 18:00:49;;;;;;;26.43;19.07;;;;;;;4.85;57.43;98430.44;8252629;28;20206;-78
2020/12/26 18:04:53;;;;;;;21.73;16.33;;;;;;;4.77;57.09;98425.41;8260706;28;20228;-78
2020/12/26 18:08:55;;;;;;;19.77;15.13;;;;;;;4.77;56.91;98415.13;8274383;28;20712;-78
2020/12/26 18:12:57;;;;;;;21.80;15.33;;;;;;;4.82;56.66;98407.41;8269530;28;20238;-79
2020/12/26 18:16:58;;;;;;;16.67;13.97;;;;;;;4.88;56.68;98391.91;8270022;28;20224;-78
2020/12/26 18:21:01;;;;;;;14.63;12.30;;;;;;;4.75;56.87;98378.38;8272276;28;20274;-78
2020/12/26 18:25:06;;;;;;;17.83;12.60;;;;;;;4.44;56.93;98367.72;8271909;28;20210;-79
2020/12/26 18:29:08;;;;;;;16.27;11.67;;;;;;;4.48;57.29;98354.81;8275027;28;20570;-78
2020/12/26 18:33:10;;;;;;;15.23;11.40;;;;;;;4.58;56.80;98355.53;8276685;28;20205;-80
2020/12/26 18:37:13;;;;;;;16.60;11.97;;;;;;;4.24;57.18;98347.44;8273232;28;20205;-77
2020/12/26 18:41:21;;;;;;;15.63;12.13;;;;;;;4.26;56.80;98345.72;8272402;28;20210;-78
2020/12/26 18:45:22;;;;;;;17.00;12.00;;;;;;;4.29;57.34;98345.69;8275248;28;20222;-77
2020/12/26 18:49:25;;;;;;;15.33;12.17;;;;;;;4.32;57.44;98343.06;8271756;28;20205;-78
2020/12/26 18:53:28;;;;;;;15.33;12.20;;;;;;;4.26;57.11;98338.84;8270402;28;20205;-78
2020/12/26 18:57:30;;;;;;;16.17;13.23;;;;;;;4.41;57.30;98337.81;8268711;28;20205;-79
2020/12/26 19:01:32;;;;;;;25.07;19.13;;;;;;;4.27;57.40;98326.91;8239859;28;20226;-79